sensor_id;sensor_type;location;lat;lon;timestamp;temperature;humidity
52024;DHT22;38038;45.922;13.604;2023-08-30T06:11:00;17.80;99.90
52024;DHT22;38038;45.922;13.604;2023-08-30T06:13:25;17.80;99.90
52024;DHT22;38038;45.922;13.604;2023-08-30T06:15:51;17.80;99.90
52024;DHT22;38038;45.922;13.604;2023-08-30T06:18:18;18.00;99.90
52024;DHT22;38038;45.922;13.604;2023-08-30T06:20:43;17.90;99.90
52024;DHT22;38038;45.922;13.604;2023-08-30T06:23:09;18.00;99.90
52024;DHT22;38038;45.922;13.604;2023-08-30T06:25:35;18.10;99.90
52024;DHT22;38038;45.922;13.604;2023-08-30T06:28:02;18.10;99.90
52024;DHT22;38038;45.922;13.604;2023-08-30T06:30:29;18.10;99.90
52024;DHT22;38038;45.922;13.604;2023-08-30T06:32:55;17.90;99.90
52024;DHT22;38038;45.922;13.604;2023-08-30T06:35:21;17.90;99.90
52024;DHT22;38038;45.922;13.604;2023-08-30T06:37:47;17.90;99.90
52024;DHT22;38038;45.922;13.604;2023-08-30T06:40:13;18.10;99.90
52024;DHT22;38038;45.922;13.604;2023-08-30T06:42:39;18.30;99.90
52024;DHT22;38038;45.922;13.604;2023-08-30T06:45:05;18.50;99.90
52024;DHT22;38038;45.922;13.604;2023-08-30T06:47:31;18.50;99.90
52024;DHT22;38038;45.922;13.604;2023-08-30T06:49:56;18.60;99.90
52024;DHT22;38038;45.922;13.604;2023-08-30T06:52:22;18.50;99.90
52024;DHT22;38038;45.922;13.604;2023-08-30T06:54:48;18.30;99.90
52024;DHT22;38038;45.922;13.604;2023-08-30T06:57:14;18.30;99.90
52024;DHT22;38038;45.922;13.604;2023-08-30T06:59:39;18.20;99.90
52024;DHT22;38038;45.922;13.604;2023-08-30T07:02:05;18.10;99.90
52024;DHT22;38038;45.922;13.604;2023-08-30T07:04:31;18.10;99.90
52024;DHT22;38038;45.922;13.604;2023-08-30T07:06:57;18.00;99.90
52024;DHT22;38038;45.922;13.604;2023-08-30T07:09:23;18.10;99.90
52024;DHT22;38038;45.922;13.604;2023-08-30T07:11:54;18.00;99.90
52024;DHT22;38038;45.922;13.604;2023-08-30T07:14:20;18.00;99.90
52024;DHT22;38038;45.922;13.604;2023-08-30T07:16:46;17.90;99.90
52024;DHT22;38038;45.922;13.604;2023-08-30T07:19:12;17.80;99.90
52024;DHT22;38038;45.922;13.604;2023-08-30T07:21:37;17.70;99.90
52024;DHT22;38038;45.922;13.604;2023-08-30T07:24:06;17.50;99.90
52024;DHT22;38038;45.922;13.604;2023-08-30T07:26:32;17.60;99.90
52024;DHT22;38038;45.922;13.604;2023-08-30T07:28:57;17.70;99.90
52024;DHT22;38038;45.922;13.604;2023-08-30T07:31:23;17.70;99.90
52024;DHT22;38038;45.922;13.604;2023-08-30T07:33:49;17.60;99.90
52024;DHT22;38038;45.922;13.604;2023-08-30T07:36:15;17.80;99.90
52024;DHT22;38038;45.922;13.604;2023-08-30T07:38:40;17.90;99.90
52024;DHT22;38038;45.922;13.604;2023-08-30T07:41:06;18.00;99.90
52024;DHT22;38038;45.922;13.604;2023-08-30T07:43:32;17.90;99.90
52024;DHT22;38038;45.922;13.604;2023-08-30T07:45:58;17.90;99.90
52024;DHT22;38038;45.922;13.604;2023-08-30T07:48:24;17.90;99.90
52024;DHT22;38038;45.922;13.604;2023-08-30T07:50:50;17.90;99.90
52024;DHT22;38038;45.922;13.604;2023-08-30T07:53:16;18.00;99.90
52024;DHT22;38038;45.922;13.604;2023-08-30T07:55:42;18.00;99.90
52024;DHT22;38038;45.922;13.604;2023-08-30T07:58:07;18.00;99.90
52024;DHT22;38038;45.922;13.604;2023-08-30T08:00:36;17.90;99.90
52024;DHT22;38038;45.922;13.604;2023-08-30T08:03:01;17.90;99.90
52024;DHT22;38038;45.922;13.604;2023-08-30T08:05:27;18.00;99.90
52024;DHT22;38038;45.922;13.604;2023-08-30T08:07:53;17.80;99.90
52024;DHT22;38038;45.922;13.604;2023-08-30T08:10:19;17.80;99.90
52024;DHT22;38038;45.922;13.604;2023-08-30T08:12:45;18.00;99.90
52024;DHT22;38038;45.922;13.604;2023-08-30T08:15:11;18.10;99.90
52024;DHT22;38038;45.922;13.604;2023-08-30T08:17:37;18.20;99.90
52024;DHT22;38038;45.922;13.604;2023-08-30T08:20:04;18.10;99.90
52024;DHT22;38038;45.922;13.604;2023-08-30T08:22:30;18.30;99.90
52024;DHT22;38038;45.922;13.604;2023-08-30T08:24:56;18.30;99.90
52024;DHT22;38038;45.922;13.604;2023-08-30T08:27:24;18.40;99.90
52024;DHT22;38038;45.922;13.604;2023-08-30T08:29:50;18.70;99.90
52024;DHT22;38038;45.922;13.604;2023-08-30T08:32:16;18.70;99.90
52024;DHT22;38038;45.922;13.604;2023-08-30T08:34:41;18.70;99.90
52024;DHT22;38038;45.922;13.604;2023-08-30T08:37:07;18.70;99.90
52024;DHT22;38038;45.922;13.604;2023-08-30T08:39:33;18.60;99.90
52024;DHT22;38038;45.922;13.604;2023-08-30T08:41:59;18.70;99.90
52024;DHT22;38038;45.922;13.604;2023-08-30T08:44:27;18.90;99.90
52024;DHT22;38038;45.922;13.604;2023-08-30T08:46:56;18.90;99.90
52024;DHT22;38038;45.922;13.604;2023-08-30T08:49:23;18.90;99.90
52024;DHT22;38038;45.922;13.604;2023-08-30T08:51:53;18.80;99.90
52024;DHT22;38038;45.922;13.604;2023-08-30T08:54:20;18.80;99.90
52024;DHT22;38038;45.922;13.604;2023-08-30T08:56:46;18.50;99.90
52024;DHT22;38038;45.922;13.604;2023-08-30T08:59:12;18.40;99.90
52024;DHT22;38038;45.922;13.604;2023-08-30T09:01:41;18.40;99.90
52024;DHT22;38038;45.922;13.604;2023-08-30T09:04:11;18.50;99.90
52024;DHT22;38038;45.922;13.604;2023-08-30T09:06:37;18.60;99.90
52024;DHT22;38038;45.922;13.604;2023-08-30T09:09:05;18.50;99.90
52024;DHT22;38038;45.922;13.604;2023-08-30T09:11:32;18.30;99.90
52024;DHT22;38038;45.922;13.604;2023-08-30T09:13:58;18.40;99.90
52024;DHT22;38038;45.922;13.604;2023-08-30T09:16:23;18.30;99.90
52024;DHT22;38038;45.922;13.604;2023-08-30T09:19:03;18.10;99.90
52024;DHT22;38038;45.922;13.604;2023-08-30T09:21:29;18.20;99.90
52024;DHT22;38038;45.922;13.604;2023-08-30T09:24:06;18.20;99.90
52024;DHT22;38038;45.922;13.604;2023-08-30T09:26:33;18.30;99.90
52024;DHT22;38038;45.922;13.604;2023-08-30T09:29:03;18.50;99.90
52024;DHT22;38038;45.922;13.604;2023-08-30T09:31:36;18.70;99.90
52024;DHT22;38038;45.922;13.604;2023-08-30T09:34:06;18.80;99.90
52024;DHT22;38038;45.922;13.604;2023-08-30T09:36:38;18.80;99.90
52024;DHT22;38038;45.922;13.604;2023-08-30T09:39:08;18.80;99.90
52024;DHT22;38038;45.922;13.604;2023-08-30T09:41:40;18.60;99.90
52024;DHT22;38038;45.922;13.604;2023-08-30T09:44:14;18.60;99.90
52024;DHT22;38038;45.922;13.604;2023-08-30T09:46:44;18.90;99.90
52024;DHT22;38038;45.922;13.604;2023-08-30T09:49:11;19.20;99.90
52024;DHT22;38038;45.922;13.604;2023-08-30T09:51:39;19.40;99.90
52024;DHT22;38038;45.922;13.604;2023-08-30T09:54:18;19.60;99.90
52024;DHT22;38038;45.922;13.604;2023-08-30T09:56:44;19.60;99.90
52024;DHT22;38038;45.922;13.604;2023-08-30T09:59:12;19.90;99.90
52024;DHT22;38038;45.922;13.604;2023-08-30T10:01:42;20.00;99.90
52024;DHT22;38038;45.922;13.604;2023-08-30T10:04:09;20.20;99.90
52024;DHT22;38038;45.922;13.604;2023-08-30T10:06:36;20.30;99.90
52024;DHT22;38038;45.922;13.604;2023-08-30T10:09:03;20.10;99.90
52024;DHT22;38038;45.922;13.604;2023-08-30T10:11:33;20.20;99.90
52024;DHT22;38038;45.922;13.604;2023-08-30T10:14:00;20.10;99.90
52024;DHT22;38038;45.922;13.604;2023-08-30T10:16:26;19.80;99.90
52024;DHT22;38038;45.922;13.604;2023-08-30T10:19:00;19.90;99.90
52024;DHT22;38038;45.922;13.604;2023-08-30T10:21:27;20.20;99.90
52024;DHT22;38038;45.922;13.604;2023-08-30T10:23:55;19.90;99.90
52024;DHT22;38038;45.922;13.604;2023-08-30T10:26:24;20.00;99.90
52024;DHT22;38038;45.922;13.604;2023-08-30T10:28:55;20.40;99.90
52024;DHT22;38038;45.922;13.604;2023-08-30T10:31:22;20.60;99.90
52024;DHT22;38038;45.922;13.604;2023-08-30T10:33:54;20.90;99.90
52024;DHT22;38038;45.922;13.604;2023-08-30T10:36:24;21.10;99.90
52024;DHT22;38038;45.922;13.604;2023-08-30T10:38:51;21.20;99.90
52024;DHT22;38038;45.922;13.604;2023-08-30T10:41:22;21.30;99.90
52024;DHT22;38038;45.922;13.604;2023-08-30T10:43:56;21.10;99.90
52024;DHT22;38038;45.922;13.604;2023-08-30T10:46:33;21.10;99.90
52024;DHT22;38038;45.922;13.604;2023-08-30T10:49:09;21.10;99.90
52024;DHT22;38038;45.922;13.604;2023-08-30T10:51:40;21.10;99.90
52024;DHT22;38038;45.922;13.604;2023-08-30T10:54:16;21.20;99.90
52024;DHT22;38038;45.922;13.604;2023-08-30T10:59:19;20.90;99.90
52024;DHT22;38038;45.922;13.604;2023-08-30T11:01:46;20.70;99.90
52024;DHT22;38038;45.922;13.604;2023-08-30T11:04:15;20.80;99.90
52024;DHT22;38038;45.922;13.604;2023-08-30T11:06:51;20.60;99.90
52024;DHT22;38038;45.922;13.604;2023-08-30T11:09:21;20.60;99.90
52024;DHT22;38038;45.922;13.604;2023-08-30T11:11:47;20.80;99.90
52024;DHT22;38038;45.922;13.604;2023-08-30T11:14:14;20.90;99.90
52024;DHT22;38038;45.922;13.604;2023-08-30T11:16:40;21.10;99.90
52024;DHT22;38038;45.922;13.604;2023-08-30T11:19:07;21.20;99.90
52024;DHT22;38038;45.922;13.604;2023-08-30T11:21:35;21.20;99.90
52024;DHT22;38038;45.922;13.604;2023-08-30T11:24:06;21.20;99.90
52024;DHT22;38038;45.922;13.604;2023-08-30T11:26:33;21.20;99.90
52024;DHT22;38038;45.922;13.604;2023-08-30T11:29:05;21.10;99.90
52024;DHT22;38038;45.922;13.604;2023-08-30T11:31:30;21.20;99.90
52024;DHT22;38038;45.922;13.604;2023-08-30T11:33:57;21.20;99.90
52024;DHT22;38038;45.922;13.604;2023-08-30T11:36:31;21.20;99.90
52024;DHT22;38038;45.922;13.604;2023-08-30T11:38:57;21.40;99.90
52024;DHT22;38038;45.922;13.604;2023-08-30T11:41:24;21.30;99.90
52024;DHT22;38038;45.922;13.604;2023-08-30T11:43:51;21.30;99.90
52024;DHT22;38038;45.922;13.604;2023-08-30T11:46:17;21.20;99.90
52024;DHT22;38038;45.922;13.604;2023-08-30T11:48:45;20.90;99.90
52024;DHT22;38038;45.922;13.604;2023-08-30T11:51:11;21.20;99.90
52024;DHT22;38038;45.922;13.604;2023-08-30T11:53:38;21.10;99.90
52024;DHT22;38038;45.922;13.604;2023-08-30T11:56:05;20.70;99.90
52024;DHT22;38038;45.922;13.604;2023-08-30T11:58:35;21.00;99.90
52024;DHT22;38038;45.922;13.604;2023-08-30T12:01:02;21.20;99.90
52024;DHT22;38038;45.922;13.604;2023-08-30T12:03:29;21.20;99.90
52024;DHT22;38038;45.922;13.604;2023-08-30T12:05:55;21.50;99.90
52024;DHT22;38038;45.922;13.604;2023-08-30T12:08:28;21.30;99.90
52024;DHT22;38038;45.922;13.604;2023-08-30T12:10:55;21.30;99.90
52024;DHT22;38038;45.922;13.604;2023-08-30T12:13:26;21.30;99.90
52024;DHT22;38038;45.922;13.604;2023-08-30T12:15:56;21.40;99.90
52024;DHT22;38038;45.922;13.604;2023-08-30T12:23:23;21.50;99.90
52024;DHT22;38038;45.922;13.604;2023-08-30T12:26:11;21.70;99.90
52024;DHT22;38038;45.922;13.604;2023-08-30T12:28:37;21.80;99.90
52024;DHT22;38038;45.922;13.604;2023-08-30T12:31:04;21.70;99.90
52024;DHT22;38038;45.922;13.604;2023-08-30T12:33:30;21.60;99.90
52024;DHT22;38038;45.922;13.604;2023-08-30T12:35:57;21.90;99.90
52024;DHT22;38038;45.922;13.604;2023-08-30T12:38:23;21.80;99.90
52024;DHT22;38038;45.922;13.604;2023-08-30T12:40:51;22.00;99.90
52024;DHT22;38038;45.922;13.604;2023-08-30T12:43:18;21.90;99.90
52024;DHT22;38038;45.922;13.604;2023-08-30T12:45:45;21.70;99.90
52024;DHT22;38038;45.922;13.604;2023-08-30T12:48:12;21.50;99.90
52024;DHT22;38038;45.922;13.604;2023-08-30T12:50:41;21.50;99.90
52024;DHT22;38038;45.922;13.604;2023-08-30T12:53:07;21.50;99.90
52024;DHT22;38038;45.922;13.604;2023-08-30T12:55:33;21.20;99.90
52024;DHT22;38038;45.922;13.604;2023-08-30T12:58:02;21.10;99.90
52024;DHT22;38038;45.922;13.604;2023-08-30T13:00:28;21.10;99.90
52024;DHT22;38038;45.922;13.604;2023-08-30T13:02:54;21.20;99.90
52024;DHT22;38038;45.922;13.604;2023-08-30T13:05:20;21.10;99.90
52024;DHT22;38038;45.922;13.604;2023-08-30T13:07:47;20.70;99.90
52024;DHT22;38038;45.922;13.604;2023-08-30T13:10:13;20.50;99.90
52024;DHT22;38038;45.922;13.604;2023-08-30T13:12:40;20.10;99.90
52024;DHT22;38038;45.922;13.604;2023-08-30T13:15:06;19.90;99.90
52024;DHT22;38038;45.922;13.604;2023-08-30T13:17:32;19.80;99.90
52024;DHT22;38038;45.922;13.604;2023-08-30T13:19:57;19.60;99.90
52024;DHT22;38038;45.922;13.604;2023-08-30T13:22:24;19.50;99.90
52024;DHT22;38038;45.922;13.604;2023-08-30T13:24:50;19.40;99.90
52024;DHT22;38038;45.922;13.604;2023-08-30T13:27:16;19.30;99.90
52024;DHT22;38038;45.922;13.604;2023-08-30T13:29:42;19.50;99.90
52024;DHT22;38038;45.922;13.604;2023-08-30T13:32:07;19.40;99.90
52024;DHT22;38038;45.922;13.604;2023-08-30T13:34:33;19.50;99.90
52024;DHT22;38038;45.922;13.604;2023-08-30T13:36:59;19.60;99.90
52024;DHT22;38038;45.922;13.604;2023-08-30T13:39:24;19.80;99.90
52024;DHT22;38038;45.922;13.604;2023-08-30T13:41:50;20.00;99.90
52024;DHT22;38038;45.922;13.604;2023-08-30T13:44:16;20.20;99.90
52024;DHT22;38038;45.922;13.604;2023-08-30T13:46:44;20.20;99.90
52024;DHT22;38038;45.922;13.604;2023-08-30T13:49:10;20.00;99.90
52024;DHT22;38038;45.922;13.604;2023-08-30T13:51:37;20.20;99.90
52024;DHT22;38038;45.922;13.604;2023-08-30T13:54:03;20.40;99.90
52024;DHT22;38038;45.922;13.604;2023-08-30T13:56:29;20.50;99.90
52024;DHT22;38038;45.922;13.604;2023-08-30T13:58:56;20.60;99.90
52024;DHT22;38038;45.922;13.604;2023-08-30T14:01:22;20.60;99.90
52024;DHT22;38038;45.922;13.604;2023-08-30T14:03:47;20.40;99.90
52024;DHT22;38038;45.922;13.604;2023-08-30T14:06:13;20.50;99.90
52024;DHT22;38038;45.922;13.604;2023-08-30T14:08:39;20.40;99.90
52024;DHT22;38038;45.922;13.604;2023-08-30T14:11:05;20.50;99.90
52024;DHT22;38038;45.922;13.604;2023-08-30T14:13:31;20.50;99.90
52024;DHT22;38038;45.922;13.604;2023-08-30T14:16:00;20.30;99.90
52024;DHT22;38038;45.922;13.604;2023-08-30T14:18:26;20.10;99.90
52024;DHT22;38038;45.922;13.604;2023-08-30T14:20:56;20.10;99.90
52024;DHT22;38038;45.922;13.604;2023-08-30T14:23:26;19.90;99.90
52024;DHT22;38038;45.922;13.604;2023-08-30T14:26:03;20.00;99.90
52024;DHT22;38038;45.922;13.604;2023-08-30T14:28:34;19.80;99.90
52024;DHT22;38038;45.922;13.604;2023-08-30T14:31:01;19.90;99.90
52024;DHT22;38038;45.922;13.604;2023-08-30T14:33:27;19.90;99.90
52024;DHT22;38038;45.922;13.604;2023-08-30T14:35:52;19.80;99.90
52024;DHT22;38038;45.922;13.604;2023-08-30T14:38:19;19.80;99.90
52024;DHT22;38038;45.922;13.604;2023-08-30T14:40:54;19.70;99.90
52024;DHT22;38038;45.922;13.604;2023-08-30T14:43:21;19.70;99.90
52024;DHT22;38038;45.922;13.604;2023-08-30T14:45:46;19.70;99.90
52024;DHT22;38038;45.922;13.604;2023-08-30T14:48:12;19.40;99.90
52024;DHT22;38038;45.922;13.604;2023-08-30T14:50:38;19.60;99.90
52024;DHT22;38038;45.922;13.604;2023-08-30T14:53:03;19.80;99.90
52024;DHT22;38038;45.922;13.604;2023-08-30T14:55:30;19.70;99.90
52024;DHT22;38038;45.922;13.604;2023-08-30T14:57:56;19.60;99.90
52024;DHT22;38038;45.922;13.604;2023-08-30T15:00:22;19.40;99.90
52024;DHT22;38038;45.922;13.604;2023-08-30T15:02:47;19.30;99.90
52024;DHT22;38038;45.922;13.604;2023-08-30T15:05:13;19.20;99.90
52024;DHT22;38038;45.922;13.604;2023-08-30T15:07:39;19.30;99.90
52024;DHT22;38038;45.922;13.604;2023-08-30T15:10:05;19.30;99.90
52024;DHT22;38038;45.922;13.604;2023-08-30T15:12:30;19.40;99.90
52024;DHT22;38038;45.922;13.604;2023-08-30T15:14:56;19.50;99.90
52024;DHT22;38038;45.922;13.604;2023-08-30T15:17:24;19.60;99.90
52024;DHT22;38038;45.922;13.604;2023-08-30T15:19:59;19.40;99.90
52024;DHT22;38038;45.922;13.604;2023-08-30T15:22:25;19.30;99.90
52024;DHT22;38038;45.922;13.604;2023-08-30T15:24:58;19.30;99.90
52024;DHT22;38038;45.922;13.604;2023-08-30T15:27:28;19.40;99.90
52024;DHT22;38038;45.922;13.604;2023-08-30T15:29:54;19.30;99.90
52024;DHT22;38038;45.922;13.604;2023-08-30T15:32:21;19.20;99.90
52024;DHT22;38038;45.922;13.604;2023-08-30T15:34:48;19.30;99.90
52024;DHT22;38038;45.922;13.604;2023-08-30T15:37:14;19.40;99.90
52024;DHT22;38038;45.922;13.604;2023-08-30T15:39:40;19.60;99.90
52024;DHT22;38038;45.922;13.604;2023-08-30T15:42:06;19.50;99.90
52024;DHT22;38038;45.922;13.604;2023-08-30T15:44:31;19.30;99.90
52024;DHT22;38038;45.922;13.604;2023-08-30T15:46:57;19.30;99.90
52024;DHT22;38038;45.922;13.604;2023-08-30T15:49:23;19.30;99.90
52024;DHT22;38038;45.922;13.604;2023-08-30T15:51:48;19.40;99.90
52024;DHT22;38038;45.922;13.604;2023-08-30T15:54:14;19.30;99.90
52024;DHT22;38038;45.922;13.604;2023-08-30T15:56:41;19.30;99.90
52024;DHT22;38038;45.922;13.604;2023-08-30T15:59:07;19.40;99.90
52024;DHT22;38038;45.922;13.604;2023-08-30T16:01:33;19.40;99.90
52024;DHT22;38038;45.922;13.604;2023-08-30T16:03:58;19.30;99.90
52024;DHT22;38038;45.922;13.604;2023-08-30T16:06:24;19.20;99.90
52024;DHT22;38038;45.922;13.604;2023-08-30T16:08:50;19.20;99.90
52024;DHT22;38038;45.922;13.604;2023-08-30T16:11:15;19.20;99.90
52024;DHT22;38038;45.922;13.604;2023-08-30T16:13:41;19.10;99.90
52024;DHT22;38038;45.922;13.604;2023-08-30T16:16:07;19.30;99.90
52024;DHT22;38038;45.922;13.604;2023-08-30T16:18:32;19.40;99.90
52024;DHT22;38038;45.922;13.604;2023-08-30T16:20:58;19.20;99.90
52024;DHT22;38038;45.922;13.604;2023-08-30T16:23:24;19.30;99.90
52024;DHT22;38038;45.922;13.604;2023-08-30T16:25:49;19.20;99.90
52024;DHT22;38038;45.922;13.604;2023-08-30T16:28:15;19.00;99.90
52024;DHT22;38038;45.922;13.604;2023-08-30T16:30:41;18.70;99.90
52024;DHT22;38038;45.922;13.604;2023-08-30T16:33:06;18.60;99.90
52024;DHT22;38038;45.922;13.604;2023-08-30T16:35:32;18.60;99.90
52024;DHT22;38038;45.922;13.604;2023-08-30T16:37:58;18.50;99.90
52024;DHT22;38038;45.922;13.604;2023-08-30T16:40:24;18.50;99.90
52024;DHT22;38038;45.922;13.604;2023-08-30T16:42:49;18.60;99.90
52024;DHT22;38038;45.922;13.604;2023-08-30T16:45:15;18.60;99.90
52024;DHT22;38038;45.922;13.604;2023-08-30T16:47:41;18.60;99.90
52024;DHT22;38038;45.922;13.604;2023-08-30T16:50:06;18.80;99.90
52024;DHT22;38038;45.922;13.604;2023-08-30T16:52:32;18.90;99.90
52024;DHT22;38038;45.922;13.604;2023-08-30T16:54:58;18.70;99.90
52024;DHT22;38038;45.922;13.604;2023-08-30T16:57:23;18.60;99.90
52024;DHT22;38038;45.922;13.604;2023-08-30T16:59:54;18.50;99.90
52024;DHT22;38038;45.922;13.604;2023-08-30T17:02:19;18.60;99.90
52024;DHT22;38038;45.922;13.604;2023-08-30T17:04:45;18.60;99.90
52024;DHT22;38038;45.922;13.604;2023-08-30T17:07:11;18.60;99.90
52024;DHT22;38038;45.922;13.604;2023-08-30T17:09:37;18.50;99.90
52024;DHT22;38038;45.922;13.604;2023-08-30T17:12:04;18.50;99.90
52024;DHT22;38038;45.922;13.604;2023-08-30T17:14:31;18.50;99.90
52024;DHT22;38038;45.922;13.604;2023-08-30T17:16:57;18.50;99.90
52024;DHT22;38038;45.922;13.604;2023-08-30T17:19:24;18.50;99.90
52024;DHT22;38038;45.922;13.604;2023-08-30T17:21:50;18.30;99.90
52024;DHT22;38038;45.922;13.604;2023-08-30T17:24:16;18.10;99.90
52024;DHT22;38038;45.922;13.604;2023-08-30T17:26:42;18.10;99.90
52024;DHT22;38038;45.922;13.604;2023-08-30T17:29:08;18.10;99.90
52024;DHT22;38038;45.922;13.604;2023-08-30T17:31:34;17.90;99.90
52024;DHT22;38038;45.922;13.604;2023-08-30T17:34:00;18.00;99.90
52024;DHT22;38038;45.922;13.604;2023-08-30T17:36:26;18.00;99.90
52024;DHT22;38038;45.922;13.604;2023-08-30T17:38:52;17.80;99.90
52024;DHT22;38038;45.922;13.604;2023-08-30T17:41:17;17.70;99.90
52024;DHT22;38038;45.922;13.604;2023-08-30T17:43:43;17.80;99.90
52024;DHT22;38038;45.922;13.604;2023-08-30T17:46:09;17.80;99.90
52024;DHT22;38038;45.922;13.604;2023-08-30T17:48:34;17.60;99.90
52024;DHT22;38038;45.922;13.604;2023-08-30T17:51:00;17.60;99.90
52024;DHT22;38038;45.922;13.604;2023-08-30T17:53:28;17.80;99.90
52024;DHT22;38038;45.922;13.604;2023-08-30T17:55:58;17.70;99.90
52024;DHT22;38038;45.922;13.604;2023-08-30T17:58:25;17.70;99.90
52024;DHT22;38038;45.922;13.604;2023-08-30T18:00:53;17.70;99.90
52024;DHT22;38038;45.922;13.604;2023-08-30T18:03:23;17.80;99.90
52024;DHT22;38038;45.922;13.604;2023-08-30T18:05:49;17.80;99.90
52024;DHT22;38038;45.922;13.604;2023-08-30T18:08:15;17.80;99.90
52024;DHT22;38038;45.922;13.604;2023-08-30T18:10:42;17.80;99.90
52024;DHT22;38038;45.922;13.604;2023-08-30T18:13:07;17.80;99.90
52024;DHT22;38038;45.922;13.604;2023-08-30T18:15:36;17.90;99.90
52024;DHT22;38038;45.922;13.604;2023-08-30T18:18:04;17.80;99.90
52024;DHT22;38038;45.922;13.604;2023-08-30T18:20:30;17.80;99.90
52024;DHT22;38038;45.922;13.604;2023-08-30T18:22:56;17.60;99.90
52024;DHT22;38038;45.922;13.604;2023-08-30T18:25:21;17.70;99.90
52024;DHT22;38038;45.922;13.604;2023-08-30T18:27:47;17.80;99.90
52024;DHT22;38038;45.922;13.604;2023-08-30T18:30:13;17.60;99.90
52024;DHT22;38038;45.922;13.604;2023-08-30T18:32:39;17.50;99.90
52024;DHT22;38038;45.922;13.604;2023-08-30T18:35:05;17.50;99.90
52024;DHT22;38038;45.922;13.604;2023-08-30T18:37:30;17.70;99.90
52024;DHT22;38038;45.922;13.604;2023-08-30T18:39:58;17.90;99.90
52024;DHT22;38038;45.922;13.604;2023-08-30T18:42:24;17.90;99.90
52024;DHT22;38038;45.922;13.604;2023-08-30T18:44:52;17.90;99.90
52024;DHT22;38038;45.922;13.604;2023-08-30T18:47:18;17.80;99.90
52024;DHT22;38038;45.922;13.604;2023-08-30T18:49:47;18.00;99.90
52024;DHT22;38038;45.922;13.604;2023-08-30T18:52:13;17.90;99.90
52024;DHT22;38038;45.922;13.604;2023-08-30T18:54:39;17.90;99.90
52024;DHT22;38038;45.922;13.604;2023-08-30T18:57:13;17.90;99.90
52024;DHT22;38038;45.922;13.604;2023-08-30T18:59:41;17.90;99.90
52024;DHT22;38038;45.922;13.604;2023-08-30T19:02:10;17.70;99.90
52024;DHT22;38038;45.922;13.604;2023-08-30T19:04:35;17.60;99.90
52024;DHT22;38038;45.922;13.604;2023-08-30T19:07:01;17.60;99.90
52024;DHT22;38038;45.922;13.604;2023-08-30T19:09:30;17.30;99.90
52024;DHT22;38038;45.922;13.604;2023-08-30T19:11:56;17.20;99.90
52024;DHT22;38038;45.922;13.604;2023-08-30T19:14:22;17.30;99.90
52024;DHT22;38038;45.922;13.604;2023-08-30T19:16:48;17.10;99.90
52024;DHT22;38038;45.922;13.604;2023-08-30T19:19:15;17.10;99.90
52024;DHT22;38038;45.922;13.604;2023-08-30T19:21:40;16.90;99.90
52024;DHT22;38038;45.922;13.604;2023-08-30T19:24:07;16.80;99.90
52024;DHT22;38038;45.922;13.604;2023-08-30T19:26:34;16.80;99.90
52024;DHT22;38038;45.922;13.604;2023-08-30T19:29:00;16.90;99.90
52024;DHT22;38038;45.922;13.604;2023-08-30T19:31:25;16.90;99.90
52024;DHT22;38038;45.922;13.604;2023-08-30T19:33:51;16.90;99.90
52024;DHT22;38038;45.922;13.604;2023-08-30T19:36:17;17.00;99.90
52024;DHT22;38038;45.922;13.604;2023-08-30T19:38:47;17.00;99.90
52024;DHT22;38038;45.922;13.604;2023-08-30T19:41:12;16.90;99.90
52024;DHT22;38038;45.922;13.604;2023-08-30T19:43:39;16.80;99.90
52024;DHT22;38038;45.922;13.604;2023-08-30T19:46:05;16.90;99.90
52024;DHT22;38038;45.922;13.604;2023-08-30T19:48:33;16.90;99.90
52024;DHT22;38038;45.922;13.604;2023-08-30T19:50:59;16.80;99.90
52024;DHT22;38038;45.922;13.604;2023-08-30T19:53:27;16.80;99.90
52024;DHT22;38038;45.922;13.604;2023-08-30T19:55:52;16.80;99.90
52024;DHT22;38038;45.922;13.604;2023-08-30T19:58:19;16.90;99.90
52024;DHT22;38038;45.922;13.604;2023-08-30T20:00:46;16.90;99.90
52024;DHT22;38038;45.922;13.604;2023-08-30T20:03:12;16.90;99.90
52024;DHT22;38038;45.922;13.604;2023-08-30T20:05:50;17.00;99.90
52024;DHT22;38038;45.922;13.604;2023-08-30T20:08:16;17.20;99.90
52024;DHT22;38038;45.922;13.604;2023-08-30T20:10:43;17.30;99.90
52024;DHT22;38038;45.922;13.604;2023-08-30T20:13:09;17.20;99.90
52024;DHT22;38038;45.922;13.604;2023-08-30T20:15:37;17.40;99.90
52024;DHT22;38038;45.922;13.604;2023-08-30T20:18:03;17.20;99.90
52024;DHT22;38038;45.922;13.604;2023-08-30T20:20:36;17.20;99.90
52024;DHT22;38038;45.922;13.604;2023-08-30T20:23:05;17.10;99.90
52024;DHT22;38038;45.922;13.604;2023-08-30T20:25:31;17.20;99.90
52024;DHT22;38038;45.922;13.604;2023-08-30T20:28:00;17.20;99.90
52024;DHT22;38038;45.922;13.604;2023-08-30T20:30:26;17.10;99.90
52024;DHT22;38038;45.922;13.604;2023-08-30T20:32:53;17.20;99.90
52024;DHT22;38038;45.922;13.604;2023-08-30T20:35:20;17.10;99.90
52024;DHT22;38038;45.922;13.604;2023-08-30T20:37:45;17.20;99.90
52024;DHT22;38038;45.922;13.604;2023-08-30T20:40:12;17.10;99.90
52024;DHT22;38038;45.922;13.604;2023-08-30T20:42:37;17.00;99.90
52024;DHT22;38038;45.922;13.604;2023-08-30T20:45:04;16.70;99.90
52024;DHT22;38038;45.922;13.604;2023-08-30T20:47:30;16.70;99.90
52024;DHT22;38038;45.922;13.604;2023-08-30T20:49:56;16.80;99.90
52024;DHT22;38038;45.922;13.604;2023-08-30T20:52:22;16.70;99.90
52024;DHT22;38038;45.922;13.604;2023-08-30T20:54:49;16.80;99.90
52024;DHT22;38038;45.922;13.604;2023-08-30T20:57:15;16.70;99.90
52024;DHT22;38038;45.922;13.604;2023-08-30T20:59:41;16.80;99.90
52024;DHT22;38038;45.922;13.604;2023-08-30T21:02:07;16.90;99.90
52024;DHT22;38038;45.922;13.604;2023-08-30T21:04:35;16.90;99.90
52024;DHT22;38038;45.922;13.604;2023-08-30T21:07:00;16.80;99.90
52024;DHT22;38038;45.922;13.604;2023-08-30T21:09:26;16.90;99.90
52024;DHT22;38038;45.922;13.604;2023-08-30T21:11:53;17.00;99.90
52024;DHT22;38038;45.922;13.604;2023-08-30T21:14:18;17.00;99.90
52024;DHT22;38038;45.922;13.604;2023-08-30T21:16:44;17.10;99.90
52024;DHT22;38038;45.922;13.604;2023-08-30T21:19:10;17.00;99.90
52024;DHT22;38038;45.922;13.604;2023-08-30T21:21:36;17.10;99.90
52024;DHT22;38038;45.922;13.604;2023-08-30T21:24:01;17.00;99.90
52024;DHT22;38038;45.922;13.604;2023-08-30T21:26:29;17.10;99.90
52024;DHT22;38038;45.922;13.604;2023-08-30T21:28:55;17.10;99.90
52024;DHT22;38038;45.922;13.604;2023-08-30T21:31:21;17.10;99.90